createdAt,value
2023-05-10T00:00:18.588Z,4.53
2023-05-10T00:02:46.950Z,4.30
2023-05-10T00:05:14.930Z,4.70
2023-05-10T00:07:45.777Z,4.37
2023-05-10T00:10:15.391Z,4.37
2023-05-10T00:12:43.777Z,4.57
2023-05-10T00:15:12.515Z,4.00
2023-05-10T00:17:40.525Z,3.90
2023-05-10T00:20:09.359Z,4.87
2023-05-10T00:22:37.316Z,4.80
2023-05-10T00:25:05.897Z,5.50
2023-05-10T00:27:35.152Z,4.90
2023-05-10T00:30:03.108Z,5.10
2023-05-10T00:32:31.066Z,5.43
2023-05-10T00:34:58.943Z,5.30
2023-05-10T00:37:27.004Z,4.43
2023-05-10T00:39:54.908Z,3.93
2023-05-10T00:42:23.208Z,3.97
2023-05-10T00:44:52.487Z,4.40
2023-05-10T00:47:20.576Z,4.57
2023-05-10T00:49:48.583Z,4.90
2023-05-10T00:52:16.579Z,3.97
2023-05-10T00:54:44.679Z,5.00
2023-05-10T00:57:13.034Z,4.83
2023-05-10T00:59:40.921Z,4.70
2023-05-10T01:02:10.695Z,5.27
2023-05-10T01:04:39.668Z,4.83
2023-05-10T01:07:07.693Z,3.87
2023-05-10T01:09:36.063Z,4.53
2023-05-10T01:12:04.934Z,3.83
2023-05-10T01:14:32.865Z,4.10
2023-05-10T01:17:01.498Z,4.20
2023-05-10T01:19:32.185Z,3.10
2023-05-10T01:22:07.977Z,3.87
2023-05-10T01:25:04.275Z,4.53
2023-05-10T01:27:56.532Z,3.57
2023-05-10T01:30:57.278Z,3.73
2023-05-10T01:33:32.188Z,3.77
2023-05-10T01:36:07.610Z,3.83
2023-05-10T01:38:43.996Z,4.57
2023-05-10T01:41:18.314Z,3.07
2023-05-10T01:43:54.818Z,3.70
2023-05-10T01:46:30.431Z,3.97
2023-05-10T01:49:01.437Z,3.80
2023-05-10T01:51:33.302Z,3.60
2023-05-10T01:54:04.151Z,3.40
2023-05-10T01:56:35.157Z,3.50
2023-05-10T01:59:09.692Z,3.50
2023-05-10T02:01:39.750Z,4.10
2023-05-10T02:04:10.169Z,4.40
2023-05-10T02:06:39.212Z,2.10
2023-05-10T02:09:08.929Z,1.87
2023-05-10T02:11:39.719Z,1.70
2023-05-10T02:14:09.749Z,1.20
2023-05-10T02:16:38.729Z,1.30
2023-05-10T02:19:09.552Z,1.30
2023-05-10T02:21:38.352Z,1.03
2023-05-10T02:24:07.535Z,1.30
2023-05-10T02:26:37.059Z,1.17
2023-05-10T02:29:05.837Z,1.17
2023-05-10T02:31:35.278Z,1.10
2023-05-10T02:34:04.655Z,1.73
2023-05-10T02:36:34.483Z,1.20
2023-05-10T02:39:04.371Z,0.90
2023-05-10T02:41:34.299Z,0.93
2023-05-10T02:44:04.704Z,0.70
2023-05-10T02:46:32.984Z,1.30
2023-05-10T02:49:01.187Z,0.93
2023-05-10T02:51:34.730Z,1.07
2023-05-10T02:54:06.056Z,0.60
2023-05-10T02:56:36.543Z,0.70
2023-05-10T02:59:04.433Z,0.73
2023-05-10T03:01:32.367Z,0.60
2023-05-10T03:04:00.285Z,0.50
2023-05-10T03:06:29.628Z,0.67
2023-05-10T03:08:58.863Z,0.50
2023-05-10T03:11:41.799Z,0.50
2023-05-10T03:14:18.686Z,0.60
2023-05-10T03:16:49.137Z,0.50
2023-05-10T03:19:24.448Z,0.60
2023-05-10T03:21:54.872Z,0.40
2023-05-10T03:24:27.304Z,0.60
2023-05-10T03:26:57.987Z,0.70
2023-05-10T03:29:28.157Z,0.70
2023-05-10T03:31:56.190Z,0.50
2023-05-10T03:34:26.010Z,0.40
2023-05-10T03:36:53.950Z,0.70
2023-05-10T03:39:23.246Z,0.50
2023-05-10T03:41:51.066Z,0.60
2023-05-10T03:44:19.662Z,0.50
2023-05-10T03:46:47.554Z,0.80
2023-05-10T03:49:15.503Z,0.40
2023-05-10T03:51:43.502Z,0.70
2023-05-10T03:54:11.397Z,0.50
2023-05-10T03:56:40.592Z,0.40
2023-05-10T03:59:09.749Z,0.30
2023-05-10T04:01:37.626Z,0.30
2023-05-10T04:04:05.851Z,0.43
2023-05-10T04:06:34.066Z,0.40
2023-05-10T04:09:04.983Z,0.40
2023-05-10T04:11:32.901Z,0.40
2023-05-10T04:14:02.059Z,0.53
2023-05-10T04:16:29.988Z,0.70
2023-05-10T04:18:58.358Z,0.60
2023-05-10T04:21:26.275Z,0.47
2023-05-10T04:23:54.318Z,0.43
2023-05-10T04:26:23.041Z,0.63
2023-05-10T04:28:50.918Z,0.70
2023-05-10T04:31:20.684Z,0.57
2023-05-10T04:33:48.572Z,0.50
2023-05-10T04:36:16.409Z,0.50
2023-05-10T04:38:44.738Z,0.67
2023-05-10T04:41:13.116Z,0.50
2023-05-10T04:43:41.204Z,0.30
2023-05-10T04:46:09.144Z,0.50
2023-05-10T04:48:38.423Z,0.53
2023-05-10T04:51:07.549Z,0.50
2023-05-10T04:53:35.456Z,0.50
2023-05-10T04:56:03.296Z,0.63
2023-05-10T04:58:31.160Z,0.50
2023-05-10T05:00:59.010Z,0.60
2023-05-10T05:03:27.061Z,0.40
2023-05-10T05:05:56.305Z,0.60
2023-05-10T05:08:24.964Z,1.10
2023-05-10T05:10:53.032Z,0.50
2023-05-10T05:13:21.267Z,0.63
2023-05-10T05:15:49.212Z,0.53
2023-05-10T05:18:17.078Z,0.70
2023-05-10T05:20:45.026Z,0.57
2023-05-10T05:23:14.274Z,0.60
2023-05-10T05:25:42.668Z,0.50
2023-05-10T05:28:10.540Z,0.50
2023-05-10T05:30:41.312Z,0.60
2023-05-10T05:33:09.223Z,0.70
2023-05-10T05:35:37.197Z,0.67
2023-05-10T05:38:05.095Z,0.60
2023-05-10T05:40:34.327Z,0.50
2023-05-10T05:43:02.278Z,0.70
2023-05-10T05:45:30.307Z,1.17
2023-05-10T05:47:58.261Z,0.57
2023-05-10T05:50:26.320Z,0.83
2023-05-10T05:52:54.172Z,0.70
2023-05-10T05:55:22.321Z,0.40
2023-05-10T05:57:51.622Z,0.70
2023-05-10T06:00:19.797Z,1.63
2023-05-10T06:02:47.751Z,0.87
2023-05-10T06:05:16.411Z,0.50
2023-05-10T06:07:44.534Z,0.83
2023-05-10T06:10:12.531Z,0.60
2023-05-10T06:12:40.463Z,0.70
2023-05-10T06:15:11.379Z,0.63
2023-05-10T06:17:39.848Z,0.83
2023-05-10T06:20:09.058Z,0.83
2023-05-10T06:22:36.901Z,0.60
2023-05-10T06:25:04.948Z,1.07
2023-05-10T06:27:32.775Z,0.60
2023-05-10T06:30:11.661Z,1.00
2023-05-10T06:32:42.085Z,1.40
2023-05-10T06:35:10.904Z,0.70
2023-05-10T06:37:38.828Z,0.77
2023-05-10T06:40:08.438Z,0.70
2023-05-10T06:42:36.322Z,0.50
2023-05-10T06:45:04.586Z,0.60
2023-05-10T06:47:32.658Z,0.50
2023-05-10T06:50:01.895Z,0.83
2023-05-10T06:52:29.753Z,0.70
2023-05-10T06:54:58.554Z,0.53
2023-05-10T06:57:31.660Z,0.53
2023-05-10T07:00:00.012Z,0.50
2023-05-10T07:02:28.263Z,0.50
2023-05-10T07:04:56.142Z,0.57
2023-05-10T07:07:25.390Z,0.60
2023-05-10T07:09:53.279Z,0.70
2023-05-10T07:12:21.201Z,0.60
2023-05-10T07:14:49.079Z,0.70
2023-05-10T07:17:16.976Z,0.43
2023-05-10T07:19:44.827Z,0.60
2023-05-10T07:22:12.663Z,1.17
2023-05-10T07:24:42.154Z,0.60
2023-05-10T07:27:10.002Z,0.80
2023-05-10T07:29:38.354Z,0.60
2023-05-10T07:32:06.894Z,0.90
2023-05-10T07:34:34.981Z,0.73
2023-05-10T07:37:03.270Z,0.73
2023-05-10T07:39:31.174Z,0.80
2023-05-10T07:42:00.432Z,1.00
2023-05-10T07:44:28.260Z,0.80
2023-05-10T07:46:56.578Z,0.80
2023-05-10T07:49:25.567Z,0.70
2023-05-10T07:51:53.433Z,1.37
2023-05-10T07:54:21.565Z,0.97
2023-05-10T07:56:49.417Z,1.10
2023-05-10T07:59:19.655Z,1.00
2023-05-10T08:01:47.622Z,1.20
2023-05-10T08:04:15.639Z,1.50
2023-05-10T08:06:43.594Z,1.67
2023-05-10T08:09:11.904Z,1.57
2023-05-10T08:11:39.850Z,2.40
2023-05-10T08:14:07.693Z,2.47
2023-05-10T08:16:36.881Z,2.20
2023-05-10T08:19:05.552Z,2.60
2023-05-10T08:21:33.659Z,2.00
2023-05-10T08:24:01.556Z,2.50
2023-05-10T08:26:29.446Z,2.30
2023-05-10T08:28:57.249Z,2.30
2023-05-10T08:31:25.180Z,2.60
2023-05-10T08:33:54.468Z,1.97
2023-05-10T08:36:25.039Z,2.30
2023-05-10T08:38:53.537Z,2.40
2023-05-10T08:41:23.030Z,1.83
2023-05-10T08:43:51.971Z,2.20
2023-05-10T08:46:21.338Z,2.47
2023-05-10T08:48:51.201Z,2.23
2023-05-10T08:51:24.768Z,2.30
2023-05-10T08:53:52.672Z,2.50
2023-05-10T08:56:21.770Z,2.00
2023-05-10T08:58:49.890Z,2.03
2023-05-10T09:01:18.789Z,2.27
2023-05-10T09:03:48.968Z,2.80
2023-05-10T09:06:17.025Z,2.60
2023-05-10T09:08:47.817Z,2.33
2023-05-10T09:11:16.180Z,2.80
2023-05-10T09:13:44.817Z,2.60
2023-05-10T09:16:21.120Z,2.73
2023-05-10T09:18:50.787Z,3.00
2023-05-10T09:21:18.812Z,2.87
2023-05-10T09:23:48.941Z,2.73
2023-05-10T09:26:17.057Z,3.90
2023-05-10T09:28:55.460Z,2.90
2023-05-10T09:31:23.574Z,3.53
2023-05-10T09:33:52.101Z,3.17
2023-05-10T09:36:19.981Z,3.50
2023-05-10T09:38:50.530Z,2.70
2023-05-10T09:41:19.550Z,2.57
2023-05-10T09:43:47.490Z,3.40
2023-05-10T09:46:15.510Z,2.57
2023-05-10T09:48:44.863Z,2.57
2023-05-10T09:51:12.958Z,2.53
2023-05-10T09:53:40.845Z,2.97
2023-05-10T09:56:10.491Z,3.10
2023-05-10T09:58:39.980Z,2.63
2023-05-10T10:01:13.025Z,2.87
2023-05-10T10:03:44.730Z,2.57
2023-05-10T10:06:26.531Z,2.90
2023-05-10T10:08:58.522Z,3.17
2023-05-10T10:11:28.870Z,3.60
2023-05-10T10:13:57.127Z,3.63
2023-05-10T10:16:26.106Z,4.30
2023-05-10T10:18:54.112Z,3.40
2023-05-10T10:21:22.398Z,4.00
2023-05-10T10:23:50.613Z,4.00
2023-05-10T10:26:20.362Z,3.97
2023-05-10T10:28:54.240Z,4.27
2023-05-10T10:31:34.297Z,3.90
2023-05-10T10:34:07.439Z,4.93
2023-05-10T10:36:41.596Z,4.40
2023-05-10T10:39:12.374Z,3.73
2023-05-10T10:41:44.921Z,3.63
2023-05-10T10:44:27.821Z,4.00
2023-05-10T10:47:03.532Z,3.70
2023-05-10T10:49:33.871Z,4.40
2023-05-10T10:52:22.808Z,3.43
2023-05-10T10:54:54.453Z,3.80
2023-05-10T10:57:23.553Z,4.33
2023-05-10T10:59:52.785Z,2.80
2023-05-10T11:02:45.131Z,2.90
2023-05-10T11:05:40.519Z,2.73
2023-05-10T11:08:17.185Z,3.20
2023-05-10T11:11:05.637Z,2.60
2023-05-10T11:13:35.497Z,3.57
2023-05-10T11:16:15.216Z,2.10
2023-05-10T11:18:53.673Z,2.20
2023-05-10T11:21:21.648Z,2.27
2023-05-10T11:23:57.239Z,1.80
2023-05-10T11:26:26.551Z,2.40
2023-05-10T11:28:57.274Z,1.80
2023-05-10T11:31:27.826Z,1.77
2023-05-10T11:33:58.220Z,1.80
2023-05-10T11:36:28.418Z,1.50
2023-05-10T11:38:57.452Z,1.97
2023-05-10T11:41:26.480Z,2.00
2023-05-10T11:43:55.981Z,2.77
2023-05-10T11:46:27.626Z,2.23
2023-05-10T11:49:01.372Z,1.93
2023-05-10T11:51:29.776Z,2.13
2023-05-10T11:53:58.799Z,1.50
2023-05-10T11:56:27.317Z,1.33
2023-05-10T11:58:57.444Z,1.30
2023-05-10T12:01:28.254Z,1.83
2023-05-10T12:03:59.701Z,1.50
2023-05-10T12:06:29.533Z,1.37
2023-05-10T12:08:57.454Z,1.60
2023-05-10T12:11:28.165Z,1.37
2023-05-10T12:13:57.247Z,1.50
2023-05-10T12:16:27.847Z,1.40
2023-05-10T12:18:57.809Z,1.50
2023-05-10T12:21:25.843Z,1.33
2023-05-10T12:23:55.663Z,1.10
2023-05-10T12:26:24.123Z,1.27
2023-05-10T12:28:52.088Z,1.40
2023-05-10T12:31:20.073Z,1.10
2023-05-10T12:33:50.299Z,1.00
2023-05-10T12:36:18.952Z,1.70
2023-05-10T12:38:49.121Z,1.30
2023-05-10T12:41:18.582Z,1.40
2023-05-10T12:43:47.644Z,1.43
2023-05-10T12:46:16.807Z,1.50
2023-05-10T12:48:46.337Z,1.63
2023-05-10T12:51:18.248Z,1.67
2023-05-10T12:53:49.593Z,1.50
2023-05-10T12:56:17.713Z,1.47
2023-05-10T12:58:48.947Z,1.50
2023-05-10T13:01:17.140Z,1.70
2023-05-10T13:03:45.073Z,2.30
2023-05-10T13:06:14.407Z,1.17
2023-05-10T13:08:43.634Z,1.23
2023-05-10T13:11:11.532Z,1.73
2023-05-10T13:13:39.367Z,0.93
2023-05-10T13:16:07.994Z,1.00
2023-05-10T13:18:35.829Z,1.17
2023-05-10T13:21:04.957Z,1.20
2023-05-10T13:23:32.823Z,1.50
2023-05-10T13:26:02.026Z,1.47
2023-05-10T13:28:30.500Z,1.20
2023-05-10T13:30:58.429Z,1.13
2023-05-10T13:33:26.492Z,1.07
2023-05-10T13:35:55.787Z,1.67
2023-05-10T13:38:23.765Z,1.23
2023-05-10T13:40:53.771Z,1.10
2023-05-10T13:43:23.193Z,1.50
2023-05-10T13:45:51.033Z,1.13
2023-05-10T13:48:18.860Z,1.00
2023-05-10T13:50:47.126Z,1.47
2023-05-10T13:53:15.391Z,1.17
2023-05-10T13:55:43.678Z,1.33
2023-05-10T13:58:11.603Z,1.33
2023-05-10T14:00:41.144Z,1.23
2023-05-10T14:03:10.165Z,1.50
2023-05-10T14:05:38.183Z,1.43
2023-05-10T14:08:06.199Z,1.00
2023-05-10T14:10:34.129Z,1.37
2023-05-10T14:13:02.212Z,0.87
2023-05-10T14:15:30.080Z,1.20
2023-05-10T14:17:59.446Z,1.50
2023-05-10T14:20:27.871Z,1.73
2023-05-10T14:22:55.696Z,1.10
2023-05-10T14:25:23.584Z,1.27
2023-05-10T14:27:51.901Z,0.97
2023-05-10T14:30:19.774Z,1.30
2023-05-10T14:32:47.671Z,1.00
2023-05-10T14:35:19.226Z,0.90
2023-05-10T14:37:47.695Z,1.27
2023-05-10T14:40:16.168Z,1.20
2023-05-10T14:42:44.895Z,0.90
2023-05-10T14:45:13.187Z,0.90
2023-05-10T14:47:41.155Z,1.10
2023-05-10T14:50:09.829Z,0.93
2023-05-10T14:52:39.017Z,0.90
2023-05-10T14:55:08.166Z,0.90
2023-05-10T14:57:36.051Z,1.13
2023-05-10T15:00:04.587Z,1.23
2023-05-10T15:02:33.199Z,1.50
2023-05-10T15:05:01.912Z,1.90
2023-05-10T15:07:30.122Z,1.30
2023-05-10T15:09:59.332Z,1.03
2023-05-10T15:12:27.194Z,0.80
2023-05-10T15:14:55.034Z,0.67
2023-05-10T15:17:22.887Z,0.70
2023-05-10T15:19:51.228Z,1.10
2023-05-10T15:22:19.062Z,0.67
2023-05-10T15:24:47.004Z,1.00
2023-05-10T15:27:16.243Z,2.13
2023-05-10T15:29:44.207Z,1.00
2023-05-10T15:32:12.119Z,0.90
2023-05-10T15:34:39.947Z,1.10
2023-05-10T15:37:07.795Z,1.10
2023-05-10T15:39:35.628Z,0.70
2023-05-10T15:42:04.028Z,0.83
2023-05-10T15:44:35.903Z,0.50
2023-05-10T15:47:04.073Z,0.67
2023-05-10T15:49:32.176Z,0.90
2023-05-10T15:52:00.052Z,0.87
2023-05-10T15:54:28.067Z,0.50
2023-05-10T15:56:55.955Z,0.90
2023-05-10T15:59:23.852Z,0.80
2023-05-10T16:01:53.172Z,0.60
2023-05-10T16:04:21.042Z,0.50
2023-05-10T16:06:48.881Z,0.50
2023-05-10T16:09:16.888Z,0.60
2023-05-10T16:11:44.945Z,0.70
2023-05-10T16:14:12.842Z,0.70
2023-05-10T16:16:41.361Z,0.77
2023-05-10T16:19:10.686Z,0.70
2023-05-10T16:21:38.896Z,0.60
2023-05-10T16:24:07.170Z,0.60
2023-05-10T16:26:40.605Z,0.67
2023-05-10T16:29:08.647Z,0.53
2023-05-10T16:31:36.649Z,0.50
2023-05-10T16:34:04.659Z,0.63
2023-05-10T16:36:34.197Z,0.70
2023-05-10T16:39:02.651Z,0.70
2023-05-10T16:41:34.435Z,0.87
2023-05-10T16:44:02.393Z,1.50
2023-05-10T16:46:30.272Z,0.70
2023-05-10T16:48:59.718Z,0.80
2023-05-10T16:51:28.014Z,0.90
2023-05-10T16:53:57.350Z,0.60
2023-05-10T16:56:25.269Z,0.73
2023-05-10T16:58:53.992Z,0.67
2023-05-10T17:01:23.257Z,0.80
2023-05-10T17:03:53.011Z,0.70
2023-05-10T17:06:20.966Z,0.97
2023-05-10T17:08:48.790Z,0.70
2023-05-10T17:11:19.861Z,0.83
2023-05-10T17:13:47.772Z,0.80
2023-05-10T17:16:15.742Z,1.00
2023-05-10T17:18:45.720Z,0.83
2023-05-10T17:21:13.631Z,1.40
2023-05-10T17:23:41.606Z,1.03
2023-05-10T17:26:09.617Z,2.10
2023-05-10T17:28:38.812Z,1.03
2023-05-10T17:31:06.719Z,0.90
2023-05-10T17:33:34.603Z,0.90
2023-05-10T17:36:02.430Z,0.87
2023-05-10T17:38:30.253Z,1.00
2023-05-10T17:40:58.095Z,0.73
2023-05-10T17:43:26.123Z,1.10
2023-05-10T17:45:55.416Z,0.90
2023-05-10T17:48:23.405Z,1.07
2023-05-10T17:50:51.515Z,1.10
2023-05-10T17:53:19.469Z,1.27
2023-05-10T17:55:47.653Z,1.10
2023-05-10T17:58:15.584Z,1.30
2023-05-10T18:00:43.452Z,1.00
2023-05-10T18:03:12.750Z,1.03
2023-05-10T18:05:40.974Z,0.90
2023-05-10T18:08:08.847Z,1.00
2023-05-10T18:10:40.021Z,0.73
2023-05-10T18:13:09.331Z,0.73
2023-05-10T18:15:37.198Z,1.20
2023-05-10T18:18:05.870Z,0.83
2023-05-10T18:20:35.126Z,0.80
2023-05-10T18:23:03.147Z,1.00
2023-05-10T18:25:31.131Z,0.90
2023-05-10T18:27:59.014Z,0.90
2023-05-10T18:30:26.858Z,1.10
2023-05-10T18:32:55.248Z,0.90
2023-05-10T18:35:23.253Z,1.20
2023-05-10T18:37:52.750Z,0.60
2023-05-10T18:40:20.870Z,1.20
2023-05-10T18:42:50.110Z,0.80
2023-05-10T18:45:18.401Z,0.70
2023-05-10T18:47:46.552Z,0.73
2023-05-10T18:50:14.379Z,0.70
2023-05-10T18:52:43.112Z,1.00
2023-05-10T18:55:12.682Z,0.60
2023-05-10T18:57:42.084Z,0.93
2023-05-10T19:00:12.206Z,0.77
2023-05-10T19:02:40.500Z,1.10
2023-05-10T19:05:09.432Z,0.80
2023-05-10T19:07:37.345Z,1.00
2023-05-10T19:10:05.890Z,0.83
2023-05-10T19:12:35.524Z,1.00
2023-05-10T19:15:03.441Z,0.70
2023-05-10T19:17:31.364Z,1.00
2023-05-10T19:20:00.021Z,0.97
2023-05-10T19:22:44.955Z,0.60
2023-05-10T19:25:17.754Z,1.00
2023-05-10T19:27:47.083Z,0.93
2023-05-10T19:30:15.081Z,1.03
2023-05-10T19:32:44.086Z,1.20
2023-05-10T19:35:13.140Z,0.90
2023-05-10T19:37:45.871Z,1.40
2023-05-10T19:40:15.543Z,1.10
2023-05-10T19:42:43.390Z,1.00
2023-05-10T19:45:15.468Z,1.13
2023-05-10T19:47:43.625Z,1.10
2023-05-10T19:50:12.656Z,1.20
2023-05-10T19:52:40.894Z,1.40
2023-05-10T19:55:09.391Z,1.00
2023-05-10T19:57:37.223Z,1.43
2023-05-10T20:00:06.590Z,1.00
2023-05-10T20:02:35.793Z,1.33
2023-05-10T20:05:03.617Z,1.10
2023-05-10T20:07:31.482Z,1.20
2023-05-10T20:09:59.457Z,0.80
2023-05-10T20:12:27.850Z,0.93
2023-05-10T20:14:55.664Z,1.00
2023-05-10T20:17:23.524Z,1.00
2023-05-10T20:19:52.801Z,1.00
2023-05-10T20:22:20.627Z,0.80
2023-05-10T20:24:48.503Z,1.03
2023-05-10T20:27:16.468Z,1.20
2023-05-10T20:29:44.318Z,1.20
2023-05-10T20:32:12.127Z,1.40
2023-05-10T20:34:40.084Z,1.20
2023-05-10T20:37:09.250Z,1.23
2023-05-10T20:39:37.112Z,0.80
2023-05-10T20:42:05.392Z,1.10
2023-05-10T20:44:33.211Z,1.07
2023-05-10T20:47:01.184Z,1.30
2023-05-10T20:49:29.450Z,0.93
2023-05-10T20:51:57.636Z,1.40
2023-05-10T20:54:26.930Z,1.10
2023-05-10T20:56:54.840Z,1.13
2023-05-10T20:59:22.778Z,1.27
2023-05-10T21:01:50.710Z,1.30
2023-05-10T21:04:18.683Z,1.40
2023-05-10T21:06:46.631Z,0.83
2023-05-10T21:09:14.764Z,1.00
2023-05-10T21:11:44.111Z,1.10
2023-05-10T21:14:11.982Z,1.00
2023-05-10T21:16:39.989Z,1.20
2023-05-10T21:19:08.762Z,1.20
2023-05-10T21:21:36.639Z,1.10
2023-05-10T21:24:04.976Z,1.10
2023-05-10T21:26:32.857Z,1.20
2023-05-10T21:29:02.541Z,1.37
2023-05-10T21:31:31.201Z,1.00
2023-05-10T21:33:59.119Z,1.13
2023-05-10T21:36:27.020Z,1.40
2023-05-10T21:38:54.937Z,1.30
2023-05-10T21:41:22.830Z,0.90
2023-05-10T21:43:51.162Z,1.00
2023-05-10T21:46:20.559Z,1.40
2023-05-10T21:48:48.429Z,1.40
2023-05-10T21:51:16.271Z,1.50
2023-05-10T21:53:44.161Z,1.40
2023-05-10T21:56:12.032Z,1.07
2023-05-10T21:58:39.892Z,1.33
2023-05-10T22:01:07.851Z,1.40
2023-05-10T22:03:37.209Z,1.03
2023-05-10T22:06:05.871Z,1.10
2023-05-10T22:08:33.732Z,1.10
2023-05-10T22:11:01.579Z,1.37
2023-05-10T22:13:29.611Z,1.23
2023-05-10T22:15:57.446Z,2.00
2023-05-10T22:18:25.403Z,1.33
2023-05-10T22:20:54.648Z,1.07
2023-05-10T22:23:22.496Z,1.67
2023-05-10T22:25:50.328Z,1.50
2023-05-10T22:28:18.138Z,1.40
2023-05-10T22:30:46.054Z,1.20
2023-05-10T22:33:13.963Z,1.70
2023-05-10T22:35:41.863Z,1.33
2023-05-10T22:38:11.074Z,1.23
2023-05-10T22:40:39.129Z,1.40
2023-05-10T22:43:06.947Z,1.43
2023-05-10T22:45:34.811Z,1.50
2023-05-10T22:48:05.049Z,1.60
2023-05-10T22:50:33.088Z,1.80
2023-05-10T22:53:00.937Z,1.60
2023-05-10T22:55:30.282Z,1.43
2023-05-10T22:57:58.221Z,1.50
2023-05-10T23:00:26.389Z,1.40
2023-05-10T23:02:54.357Z,1.77
2023-05-10T23:05:22.333Z,1.50
2023-05-10T23:07:53.264Z,1.70
2023-05-10T23:10:21.275Z,1.53
2023-05-10T23:12:50.525Z,1.43
2023-05-10T23:15:18.420Z,1.53
2023-05-10T23:17:46.317Z,1.57
2023-05-10T23:20:14.664Z,1.53
2023-05-10T23:22:42.542Z,1.50
2023-05-10T23:25:11.299Z,1.73
2023-05-10T23:27:39.382Z,1.90
2023-05-10T23:30:10.409Z,1.77
2023-05-10T23:32:38.319Z,1.50
2023-05-10T23:35:07.098Z,1.50
2023-05-10T23:37:36.089Z,1.50
2023-05-10T23:40:04.309Z,1.50
2023-05-10T23:42:33.743Z,1.77
2023-05-10T23:45:01.632Z,1.50
2023-05-10T23:47:31.013Z,1.40
2023-05-10T23:49:58.905Z,1.40
2023-05-10T23:52:27.283Z,1.47
2023-05-10T23:54:55.149Z,1.10
2023-05-10T23:57:23.001Z,1.70
2023-05-10T23:59:50.947Z,1.13
